createdAt,value
2022-08-21T00:00:29.357Z,125.33
2022-08-21T00:03:08.468Z,124.50
2022-08-21T00:05:41.056Z,125.07
2022-08-21T00:08:09.256Z,124.97
2022-08-21T00:10:36.759Z,124.50
2022-08-21T00:13:07.008Z,123.87
2022-08-21T00:15:37.807Z,123.70
2022-08-21T00:18:07.540Z,123.87
2022-08-21T00:20:36.147Z,123.30
2022-08-21T00:23:04.114Z,123.10
2022-08-21T00:25:32.197Z,123.10
2022-08-21T00:27:59.736Z,123.20
2022-08-21T00:30:29.158Z,122.73
2022-08-21T00:32:58.801Z,122.67
2022-08-21T00:35:41.072Z,122.80
2022-08-21T00:38:09.413Z,122.60
2022-08-21T00:40:53.124Z,121.37
2022-08-21T00:43:28.548Z,121.90
2022-08-21T00:45:58.024Z,122.67
2022-08-21T00:48:26.328Z,122.60
2022-08-21T00:51:24.181Z,121.77
2022-08-21T00:53:56.901Z,121.97
2022-08-21T00:56:25.677Z,122.20
2022-08-21T00:58:55.155Z,121.67
2022-08-21T01:01:23.067Z,122.37
2022-08-21T01:03:50.869Z,121.97
2022-08-21T01:06:19.001Z,122.10
2022-08-21T01:08:47.145Z,121.90
2022-08-21T01:11:16.477Z,122.43
2022-08-21T01:13:47.329Z,121.87
2022-08-21T01:16:20.305Z,121.73
2022-08-21T01:18:52.235Z,121.87
2022-08-21T01:21:22.810Z,121.90
2022-08-21T01:23:58.140Z,122.20
2022-08-21T01:26:34.052Z,122.67
2022-08-21T01:29:24.313Z,121.80
2022-08-21T01:31:52.030Z,121.57
2022-08-21T01:34:19.855Z,121.67
2022-08-21T01:36:49.006Z,122.00
2022-08-21T01:39:17.826Z,122.40
2022-08-21T01:41:45.571Z,122.63
2022-08-21T01:44:13.175Z,122.00
2022-08-21T01:46:41.220Z,121.77
2022-08-21T01:49:09.238Z,122.57
2022-08-21T01:51:36.718Z,122.40
2022-08-21T01:54:04.247Z,122.50
2022-08-21T01:56:48.730Z,122.30
2022-08-21T01:59:16.159Z,122.40
2022-08-21T02:01:43.599Z,121.77
2022-08-21T02:04:12.130Z,122.27
2022-08-21T02:06:39.699Z,122.07
2022-08-21T02:09:10.138Z,123.07
2022-08-21T02:11:41.252Z,122.80
2022-08-21T02:14:12.215Z,122.90
2022-08-21T02:16:42.510Z,122.20
2022-08-21T02:19:11.871Z,122.87
2022-08-21T02:21:39.799Z,122.70
2022-08-21T02:24:07.998Z,122.80
2022-08-21T02:26:35.856Z,122.90
2022-08-21T02:29:06.048Z,122.77
2022-08-21T02:31:33.615Z,122.57
2022-08-21T02:34:01.098Z,122.90
2022-08-21T02:36:28.695Z,123.10
2022-08-21T02:38:57.174Z,122.87
2022-08-21T02:41:25.099Z,122.20
2022-08-21T02:43:52.684Z,122.90
2022-08-21T02:46:22.203Z,122.97
2022-08-21T02:48:50.172Z,123.47
2022-08-21T02:51:20.744Z,122.90
2022-08-21T02:53:50.055Z,123.20
2022-08-21T02:56:20.556Z,122.47
2022-08-21T02:58:52.367Z,122.80
2022-08-21T03:01:21.022Z,122.80
2022-08-21T03:03:51.956Z,123.07
2022-08-21T03:06:22.529Z,122.47
2022-08-21T03:08:50.151Z,123.07
2022-08-21T03:11:18.388Z,122.53
2022-08-21T03:13:45.521Z,123.10
2022-08-21T03:16:13.292Z,123.20
2022-08-21T03:18:40.972Z,122.30
2022-08-21T03:21:08.549Z,122.40
2022-08-21T03:23:35.969Z,123.00
2022-08-21T03:26:03.489Z,123.37
2022-08-21T03:28:31.208Z,122.80
2022-08-21T03:30:58.212Z,122.77
2022-08-21T03:33:25.804Z,122.87
2022-08-21T03:36:06.770Z,122.87
2022-08-21T03:38:37.742Z,122.83
2022-08-21T03:41:07.229Z,122.70
2022-08-21T03:43:36.366Z,122.60
2022-08-21T03:46:05.115Z,122.70
2022-08-21T03:48:33.700Z,122.07
2022-08-21T03:51:01.226Z,122.07
2022-08-21T03:53:28.833Z,122.97
2022-08-21T03:55:56.422Z,121.80
2022-08-21T03:58:28.277Z,122.30
2022-08-21T04:01:00.094Z,122.57
2022-08-21T04:03:28.757Z,122.80
2022-08-21T04:05:56.514Z,121.97
2022-08-21T04:08:24.297Z,122.17
2022-08-21T04:10:59.159Z,121.87
2022-08-21T04:13:28.945Z,122.30
2022-08-21T04:15:59.401Z,122.30
2022-08-21T04:18:26.989Z,122.53
2022-08-21T04:20:57.593Z,122.40
2022-08-21T04:23:26.707Z,121.67
2022-08-21T04:25:56.457Z,122.27
2022-08-21T04:28:29.234Z,122.30
2022-08-21T04:30:58.946Z,121.93
2022-08-21T04:33:26.946Z,121.77
2022-08-21T04:35:54.526Z,122.47
2022-08-21T04:38:22.365Z,121.97
2022-08-21T04:40:51.134Z,121.90
2022-08-21T04:43:19.145Z,121.77
2022-08-21T04:45:48.890Z,121.60
2022-08-21T04:48:21.503Z,122.33
2022-08-21T04:50:59.126Z,121.87
2022-08-21T04:53:41.324Z,121.80
2022-08-21T04:56:26.850Z,122.10
2022-08-21T04:58:57.630Z,121.30
2022-08-21T05:01:30.927Z,121.67
2022-08-21T05:04:00.998Z,121.80
2022-08-21T05:06:34.980Z,121.97
2022-08-21T05:09:02.966Z,121.40
2022-08-21T05:11:32.610Z,121.57
2022-08-21T05:14:00.280Z,121.90
2022-08-21T05:16:36.366Z,121.97
2022-08-21T05:19:06.998Z,121.40
2022-08-21T05:21:37.238Z,121.87
2022-08-21T05:24:04.842Z,122.03
2022-08-21T05:26:32.646Z,121.57
2022-08-21T05:29:00.587Z,121.67
2022-08-21T05:31:29.572Z,122.17
2022-08-21T05:33:57.734Z,121.70
2022-08-21T05:36:25.443Z,122.20
2022-08-21T05:38:52.852Z,121.87
2022-08-21T05:41:20.368Z,121.87
2022-08-21T05:43:47.326Z,122.67
2022-08-21T05:46:16.143Z,122.27
2022-08-21T05:48:43.103Z,121.67
2022-08-21T05:51:15.098Z,121.87
2022-08-21T05:53:44.265Z,121.57
2022-08-21T05:56:13.275Z,121.90
2022-08-21T05:58:40.811Z,121.97
2022-08-21T06:01:09.841Z,122.77
2022-08-21T06:03:42.359Z,120.83
2022-08-21T06:06:10.684Z,121.27
2022-08-21T06:08:38.515Z,121.00
2022-08-21T06:11:07.003Z,121.60
2022-08-21T06:13:35.340Z,121.57
2022-08-21T06:16:16.002Z,121.43
2022-08-21T06:18:45.409Z,121.10
2022-08-21T06:21:14.430Z,121.67
2022-08-21T06:23:42.839Z,121.00
2022-08-21T06:26:12.963Z,120.03
2022-08-21T06:28:41.148Z,120.50
2022-08-21T06:31:18.964Z,121.07
2022-08-21T06:33:47.419Z,119.87
2022-08-21T06:36:15.400Z,120.60
2022-08-21T06:38:51.086Z,120.57
2022-08-21T06:41:23.893Z,120.50
2022-08-21T06:43:55.523Z,120.27
2022-08-21T06:46:29.465Z,119.83
2022-08-21T06:48:58.193Z,119.40
2022-08-21T06:51:28.704Z,120.57
2022-08-21T06:53:56.326Z,120.17
2022-08-21T06:56:26.937Z,120.67
2022-08-21T06:58:54.389Z,120.30
2022-08-21T07:01:27.037Z,120.47
2022-08-21T07:03:54.929Z,119.57
2022-08-21T07:06:22.433Z,119.57
2022-08-21T07:08:49.926Z,119.60
2022-08-21T07:11:23.280Z,119.70
2022-08-21T07:13:53.523Z,118.77
2022-08-21T07:16:21.697Z,119.47
2022-08-21T07:18:49.427Z,119.97
2022-08-21T07:21:17.597Z,119.90
2022-08-21T07:23:49.704Z,119.67
2022-08-21T07:26:21.606Z,119.20
2022-08-21T07:28:51.215Z,119.10
2022-08-21T07:31:22.279Z,119.70
2022-08-21T07:33:49.790Z,119.63
2022-08-21T07:36:18.294Z,119.57
2022-08-21T07:38:46.289Z,119.70
2022-08-21T07:41:24.045Z,119.87
2022-08-21T07:43:52.749Z,120.67
2022-08-21T07:46:21.125Z,119.80
2022-08-21T07:48:48.177Z,120.50
2022-08-21T07:51:18.637Z,120.47
2022-08-21T07:53:53.094Z,121.07
2022-08-21T07:56:21.068Z,119.97
2022-08-21T07:58:48.873Z,120.40
2022-08-21T08:03:51.209Z,120.63
2022-08-21T08:06:20.050Z,119.57
2022-08-21T08:08:48.137Z,120.20
2022-08-21T08:11:16.277Z,119.77
2022-08-21T08:13:48.435Z,120.87
2022-08-21T08:16:16.838Z,119.80
2022-08-21T08:18:45.234Z,120.10
2022-08-21T08:21:14.166Z,118.60
2022-08-21T08:23:41.713Z,118.77
2022-08-21T08:26:09.182Z,118.50
2022-08-21T08:28:36.706Z,118.60
2022-08-21T08:31:04.702Z,118.57
2022-08-21T08:33:32.286Z,118.33
2022-08-21T08:36:03.393Z,117.87
2022-08-21T08:38:34.159Z,117.67
2022-08-21T08:41:20.683Z,117.80
2022-08-21T08:44:04.902Z,118.47
2022-08-21T08:46:45.316Z,117.50
2022-08-21T08:49:58.798Z,114.87
2022-08-21T08:52:43.542Z,116.30
2022-08-21T08:55:26.618Z,115.40
2022-08-21T08:57:56.092Z,115.33
2022-08-21T09:00:25.427Z,115.60
2022-08-21T09:03:03.195Z,115.77
2022-08-21T09:05:44.016Z,117.00
2022-08-21T09:08:32.274Z,117.23
2022-08-21T09:11:21.022Z,116.37
2022-08-21T09:14:05.268Z,117.40
2022-08-21T09:17:03.212Z,115.30
2022-08-21T09:20:03.316Z,112.67
2022-08-21T09:23:03.839Z,114.77
2022-08-21T09:25:43.599Z,115.70
2022-08-21T09:28:15.510Z,115.30
2022-08-21T09:30:43.202Z,114.20
2022-08-21T09:33:14.343Z,114.13
2022-08-21T09:36:00.486Z,115.00
2022-08-21T09:38:38.101Z,115.97
2022-08-21T09:41:11.199Z,114.97
2022-08-21T09:43:39.407Z,113.47
2022-08-21T09:46:25.620Z,112.20
2022-08-21T09:48:57.324Z,112.77
2022-08-21T09:51:34.820Z,112.47
2022-08-21T09:54:08.269Z,112.27
2022-08-21T09:57:50.575Z,114.80
2022-08-21T10:00:32.497Z,115.67
2022-08-21T10:03:25.284Z,114.67
2022-08-21T10:06:10.140Z,111.57
2022-08-21T10:08:41.180Z,110.77
2022-08-21T10:11:14.029Z,109.70
2022-08-21T10:13:59.579Z,108.10
2022-08-21T10:17:02.712Z,109.50
2022-08-21T10:19:44.664Z,109.80
2022-08-21T10:22:34.110Z,110.40
2022-08-21T10:25:34.466Z,109.87
2022-08-21T10:28:14.157Z,109.03
2022-08-21T10:30:57.537Z,108.57
2022-08-21T10:33:33.209Z,107.87
2022-08-21T10:36:21.705Z,108.70
2022-08-21T10:39:26.641Z,109.90
2022-08-21T10:42:27.474Z,106.60
2022-08-21T10:45:38.032Z,106.10
2022-08-21T10:48:09.025Z,105.33
2022-08-21T10:50:54.513Z,105.17
2022-08-21T10:54:03.141Z,104.70
2022-08-21T10:56:36.436Z,107.00
2022-08-21T10:59:12.719Z,108.70
2022-08-21T11:01:55.214Z,109.40
2022-08-21T11:04:39.652Z,110.00
2022-08-21T11:07:34.454Z,109.30
2022-08-21T11:10:27.149Z,107.53
2022-08-21T11:13:14.222Z,106.80
2022-08-21T11:16:21.769Z,107.63
2022-08-21T11:18:58.862Z,108.07
2022-08-21T11:21:49.724Z,108.67
2022-08-21T11:24:57.331Z,108.90
2022-08-21T11:27:39.561Z,108.80
2022-08-21T11:30:08.306Z,108.27
2022-08-21T11:32:58.645Z,109.00
2022-08-21T11:35:56.390Z,109.70
2022-08-21T11:38:40.113Z,110.67
2022-08-21T11:41:29.783Z,112.17
2022-08-21T11:44:24.038Z,113.37
2022-08-21T11:47:10.614Z,114.03
2022-08-21T11:50:01.222Z,113.60
2022-08-21T11:52:48.840Z,112.43
2022-08-21T11:55:23.599Z,112.07
2022-08-21T11:58:10.463Z,111.87
2022-08-21T12:00:48.806Z,112.00
2022-08-21T12:03:34.754Z,113.67
2022-08-21T12:06:05.839Z,113.87
2022-08-21T12:08:45.431Z,113.70
2022-08-21T12:11:18.886Z,113.67
2022-08-21T12:14:13.002Z,112.50
2022-08-21T12:16:51.123Z,111.50
2022-08-21T12:19:21.462Z,109.10
2022-08-21T12:22:13.716Z,108.73
2022-08-21T12:24:44.238Z,108.17
2022-08-21T12:27:54.696Z,108.10
2022-08-21T12:30:28.254Z,108.10
2022-08-21T12:33:06.895Z,108.90
2022-08-21T12:35:45.388Z,109.60
2022-08-21T12:38:28.782Z,109.07
2022-08-21T12:41:18.872Z,108.37
2022-08-21T12:44:06.528Z,107.27
2022-08-21T12:46:56.895Z,107.27
2022-08-21T12:49:38.605Z,106.20
2022-08-21T12:52:34.574Z,106.47
2022-08-21T12:55:05.223Z,107.87
2022-08-21T12:57:32.728Z,108.37
2022-08-21T13:00:10.027Z,107.87
2022-08-21T13:02:44.035Z,107.07
2022-08-21T13:05:17.211Z,108.57
2022-08-21T13:07:50.748Z,108.30
2022-08-21T13:10:27.879Z,106.10
2022-08-21T13:12:59.369Z,105.37
2022-08-21T13:15:36.120Z,107.80
2022-08-21T13:18:06.559Z,112.30
2022-08-21T13:20:43.208Z,113.40
2022-08-21T13:23:29.484Z,114.17
2022-08-21T13:25:58.596Z,112.97
2022-08-21T13:28:37.371Z,112.87
2022-08-21T13:31:14.264Z,110.10
2022-08-21T13:33:42.363Z,106.60
2022-08-21T13:36:42.276Z,105.43
2022-08-21T13:39:13.840Z,105.17
2022-08-21T13:41:46.652Z,104.27
2022-08-21T13:44:27.088Z,104.07
2022-08-21T13:46:55.418Z,104.90
2022-08-21T13:49:34.414Z,105.17
2022-08-21T13:52:03.012Z,105.57
2022-08-21T13:54:42.592Z,105.97
2022-08-21T13:57:33.356Z,107.40
2022-08-21T14:00:31.209Z,108.97
2022-08-21T14:03:09.061Z,111.70
2022-08-21T14:05:45.220Z,112.20
2022-08-21T14:08:21.648Z,111.57
2022-08-21T14:11:00.569Z,111.17
2022-08-21T14:13:38.425Z,110.23
2022-08-21T14:16:20.513Z,107.87
2022-08-21T14:18:52.277Z,105.87
2022-08-21T14:21:39.625Z,106.13
2022-08-21T14:24:31.390Z,105.67
2022-08-21T14:27:08.109Z,105.63
2022-08-21T14:29:42.075Z,106.07
2022-08-21T14:32:21.933Z,106.03
2022-08-21T14:34:54.554Z,107.00
2022-08-21T14:37:23.753Z,107.20
2022-08-21T14:39:51.610Z,107.93
2022-08-21T14:42:19.389Z,107.97
2022-08-21T14:44:47.105Z,107.87
2022-08-21T14:47:14.585Z,108.37
2022-08-21T14:49:42.220Z,107.67
2022-08-21T14:52:10.134Z,108.30
2022-08-21T14:54:37.638Z,107.87
2022-08-21T14:57:12.850Z,107.93
2022-08-21T14:59:40.976Z,109.20
2022-08-21T15:02:09.705Z,112.00
2022-08-21T15:04:37.177Z,112.40
2022-08-21T15:07:05.010Z,112.77
2022-08-21T15:09:32.515Z,114.50
2022-08-21T15:12:03.878Z,113.77
2022-08-21T15:14:36.466Z,113.90
2022-08-21T15:17:04.859Z,113.57
2022-08-21T15:19:32.507Z,113.47
2022-08-21T15:22:00.532Z,113.73
2022-08-21T15:24:28.818Z,113.70
2022-08-21T15:26:57.646Z,114.40
2022-08-21T15:29:25.055Z,114.73
2022-08-21T15:32:04.814Z,114.90
2022-08-21T15:34:32.486Z,114.20
2022-08-21T15:37:00.331Z,113.00
2022-08-21T15:39:30.011Z,112.67
2022-08-21T15:41:57.871Z,112.20
2022-08-21T15:44:28.674Z,111.97
2022-08-21T15:46:57.486Z,112.47
2022-08-21T15:49:25.462Z,112.77
2022-08-21T15:51:53.111Z,118.70
2022-08-21T15:54:20.636Z,114.33
2022-08-21T15:56:51.435Z,113.17
2022-08-21T15:59:22.980Z,113.87
2022-08-21T16:01:52.398Z,114.27
2022-08-21T16:04:27.826Z,114.03
2022-08-21T16:07:01.748Z,113.23
2022-08-21T16:09:32.805Z,113.67
2022-08-21T16:12:04.815Z,113.70
2022-08-21T16:14:36.977Z,113.80
2022-08-21T16:17:08.879Z,114.17
2022-08-21T16:19:37.395Z,114.50
2022-08-21T16:22:05.116Z,115.10
2022-08-21T16:24:32.711Z,117.07
2022-08-21T16:27:02.672Z,116.97
2022-08-21T16:29:39.959Z,116.80
2022-08-21T16:32:08.852Z,117.17
2022-08-21T16:34:37.037Z,117.10
2022-08-21T16:37:04.550Z,117.50
2022-08-21T16:39:31.972Z,118.60
2022-08-21T16:41:59.412Z,118.27
2022-08-21T16:44:26.748Z,117.70
2022-08-21T16:46:58.056Z,117.90
2022-08-21T16:49:25.503Z,118.30
2022-08-21T16:51:53.159Z,117.37
2022-08-21T16:54:20.621Z,117.73
2022-08-21T16:56:48.176Z,117.90
2022-08-21T16:59:17.536Z,117.50
2022-08-21T17:01:45.998Z,117.53
2022-08-21T17:04:13.951Z,117.27
2022-08-21T17:06:41.792Z,117.60
2022-08-21T17:09:09.296Z,117.70
2022-08-21T17:11:43.644Z,117.83
2022-08-21T17:14:20.213Z,117.40
2022-08-21T17:16:54.572Z,116.87
2022-08-21T17:19:22.224Z,118.80
2022-08-21T17:21:49.962Z,117.70
2022-08-21T17:24:17.732Z,118.40
2022-08-21T17:26:46.044Z,118.20
2022-08-21T17:29:15.934Z,116.40
2022-08-21T17:31:44.432Z,116.67
2022-08-21T17:34:12.791Z,118.30
2022-08-21T17:36:40.285Z,118.53
2022-08-21T17:39:07.912Z,118.40
2022-08-21T17:41:35.553Z,117.47
2022-08-21T17:44:10.110Z,117.03
2022-08-21T17:46:39.398Z,117.70
2022-08-21T17:49:08.170Z,118.40
2022-08-21T17:51:35.881Z,116.60
2022-08-21T17:54:03.441Z,117.20
2022-08-21T17:56:35.901Z,119.00
2022-08-21T17:59:05.328Z,118.07
2022-08-21T18:01:39.886Z,119.57
2022-08-21T18:04:06.918Z,119.03
2022-08-21T18:06:34.351Z,117.13
2022-08-21T18:09:02.119Z,118.57
2022-08-21T18:11:31.970Z,119.07
2022-08-21T18:14:07.108Z,120.00
2022-08-21T18:16:37.454Z,119.47
2022-08-21T18:19:10.353Z,118.67
2022-08-21T18:21:37.814Z,118.47
2022-08-21T18:24:05.657Z,118.37
2022-08-21T18:26:37.334Z,119.00
2022-08-21T18:29:08.381Z,120.53
2022-08-21T18:31:38.342Z,120.20
2022-08-21T18:34:20.236Z,120.57
2022-08-21T18:36:48.525Z,121.80
2022-08-21T18:39:35.475Z,121.40
2022-08-21T18:42:10.047Z,119.30
2022-08-21T18:44:39.539Z,120.97
2022-08-21T18:47:15.876Z,120.80
2022-08-21T18:49:43.436Z,121.27
2022-08-21T18:52:10.936Z,120.87
2022-08-21T18:54:49.580Z,121.20
2022-08-21T18:57:18.514Z,121.43
2022-08-21T18:59:46.062Z,121.50
2022-08-21T19:02:13.718Z,121.37
2022-08-21T19:04:44.781Z,121.30
2022-08-21T19:07:14.328Z,121.50
2022-08-21T19:09:49.317Z,121.60
2022-08-21T19:12:29.647Z,121.60
2022-08-21T19:14:59.602Z,121.80
2022-08-21T19:17:28.355Z,121.67
2022-08-21T19:20:27.707Z,121.80
2022-08-21T19:22:56.803Z,122.07
2022-08-21T19:25:33.638Z,121.80
2022-08-21T19:28:11.617Z,122.30
2022-08-21T19:30:53.572Z,122.20
2022-08-21T19:33:33.655Z,122.17
2022-08-21T19:36:02.038Z,122.43
2022-08-21T19:38:29.746Z,122.20
2022-08-21T19:40:57.485Z,121.87
2022-08-21T19:43:25.220Z,122.00
2022-08-21T19:45:58.573Z,122.10
2022-08-21T19:48:26.804Z,122.40
2022-08-21T19:50:54.491Z,122.00
2022-08-21T19:53:22.219Z,122.27
2022-08-21T19:55:49.932Z,122.40
2022-08-21T19:58:34.459Z,121.77
2022-08-21T20:01:05.840Z,122.07
2022-08-21T20:03:54.044Z,122.13
2022-08-21T20:06:24.165Z,122.00
2022-08-21T20:08:55.373Z,122.50
2022-08-21T20:11:37.536Z,122.13
2022-08-21T20:14:06.880Z,122.80
2022-08-21T20:16:34.962Z,123.03
2022-08-21T20:19:04.657Z,123.37
2022-08-21T20:21:43.655Z,122.60
2022-08-21T20:27:06.139Z,122.87
2022-08-21T20:29:39.140Z,122.77
2022-08-21T20:32:24.154Z,123.23
2022-08-21T20:34:53.815Z,122.27
2022-08-21T20:37:36.879Z,122.70
2022-08-21T20:40:11.179Z,122.37
2022-08-21T20:42:48.453Z,122.60
2022-08-21T20:45:32.553Z,122.30
2022-08-21T20:48:24.430Z,122.97
2022-08-21T20:51:26.894Z,122.67
2022-08-21T20:54:27.418Z,123.27
2022-08-21T20:57:31.617Z,123.30
2022-08-21T21:00:14.882Z,123.77
2022-08-21T21:03:06.671Z,123.47
2022-08-21T21:05:52.790Z,123.17
2022-08-21T21:08:33.386Z,124.00
2022-08-21T21:11:27.903Z,123.60
2022-08-21T21:14:11.342Z,124.10
2022-08-21T21:19:49.126Z,123.60
2022-08-21T21:25:39.856Z,123.00
2022-08-21T21:28:19.529Z,123.60
2022-08-21T21:30:55.562Z,122.53
2022-08-21T21:33:28.606Z,123.17
2022-08-21T21:36:08.810Z,122.97
2022-08-21T21:38:51.988Z,123.23
2022-08-21T21:41:44.722Z,122.67
2022-08-21T21:44:48.526Z,123.27
2022-08-21T21:47:37.462Z,123.20
2022-08-21T21:50:48.587Z,123.30
2022-08-21T21:54:08.970Z,123.43
2022-08-21T21:56:55.194Z,122.87
2022-08-21T22:00:00.226Z,123.07
2022-08-21T22:03:25.127Z,123.47
2022-08-21T22:06:01.866Z,123.53
2022-08-21T22:08:50.983Z,123.10
2022-08-21T22:11:37.294Z,123.37
2022-08-21T22:14:16.939Z,122.77
2022-08-21T22:16:51.347Z,122.80
2022-08-21T22:19:37.731Z,122.77
2022-08-21T22:22:17.627Z,122.40
2022-08-21T22:24:54.265Z,121.70
2022-08-21T22:27:33.964Z,121.57
2022-08-21T22:30:10.739Z,121.77
2022-08-21T22:32:48.978Z,121.27
2022-08-21T22:35:22.407Z,121.23
2022-08-21T22:37:56.459Z,121.53
2022-08-21T22:40:36.219Z,121.30
2022-08-21T22:43:27.039Z,121.80
2022-08-21T22:46:09.795Z,121.27
2022-08-21T22:48:52.956Z,121.00
2022-08-21T22:52:06.189Z,121.73
2022-08-21T22:54:45.300Z,121.60
2022-08-21T22:57:35.102Z,121.30
2022-08-21T23:00:16.500Z,121.60
2022-08-21T23:02:49.435Z,121.47
2022-08-21T23:05:40.515Z,121.80
2022-08-21T23:08:38.596Z,121.50
2022-08-21T23:11:20.928Z,121.07
2022-08-21T23:13:53.156Z,121.60
2022-08-21T23:16:48.332Z,121.47
2022-08-21T23:19:58.852Z,121.50
2022-08-21T23:22:47.465Z,121.60
2022-08-21T23:25:37.247Z,121.87
2022-08-21T23:28:23.720Z,121.40
2022-08-21T23:31:35.576Z,121.50
2022-08-21T23:34:43.744Z,121.60
2022-08-21T23:37:51.485Z,121.57
2022-08-21T23:40:50.844Z,121.83
2022-08-21T23:43:55.784Z,121.90
2022-08-21T23:46:43.468Z,121.50
2022-08-21T23:49:48.157Z,121.77
2022-08-21T23:52:23.241Z,121.80
2022-08-21T23:55:41.925Z,121.73
2022-08-21T23:58:28.518Z,121.50
